createdAt,value
2019-06-07T00:00:47.644Z,5.23
2019-06-07T00:03:27.483Z,4.40
2019-06-07T00:05:49.705Z,5.50
2019-06-07T00:08:27.287Z,3.83
2019-06-07T00:10:51.286Z,4.60
2019-06-07T00:13:21.496Z,4.87
2019-06-07T00:15:52.027Z,3.33
2019-06-07T00:18:25.930Z,4.00
2019-06-07T00:20:54.259Z,4.17
2019-06-07T00:23:24.198Z,3.60
2019-06-07T00:25:54.151Z,4.90
2019-06-07T00:28:23.938Z,4.77
2019-06-07T00:30:54.201Z,4.03
2019-06-07T00:33:25.111Z,3.80
2019-06-07T00:35:56.456Z,4.23
2019-06-07T00:38:26.361Z,3.93
2019-06-07T00:40:56.298Z,4.30
2019-06-07T00:43:28.580Z,4.50
2019-06-07T00:45:58.263Z,4.33
2019-06-07T00:48:32.765Z,3.87
2019-06-07T00:51:00.551Z,3.50
2019-06-07T00:53:32.494Z,4.20
2019-06-07T00:56:02.446Z,3.77
2019-06-07T00:58:32.792Z,7.10
2019-06-07T01:01:03.008Z,4.30
2019-06-07T01:03:32.885Z,3.90
2019-06-07T01:06:02.822Z,4.87
2019-06-07T01:08:33.056Z,5.77
2019-06-07T01:11:02.898Z,3.80
2019-06-07T01:13:32.761Z,6.73
2019-06-07T01:16:02.705Z,4.93
2019-06-07T01:18:38.445Z,4.13
2019-06-07T01:21:04.896Z,3.80
2019-06-07T01:24:05.477Z,4.33
2019-06-07T01:26:06.398Z,4.67
2019-06-07T01:28:37.410Z,5.50
2019-06-07T01:31:07.354Z,6.43
2019-06-07T01:33:50.163Z,6.27
2019-06-07T01:36:09.397Z,4.33
2019-06-07T01:38:39.378Z,4.50
2019-06-07T01:41:09.601Z,5.13
2019-06-07T01:43:39.583Z,6.93
2019-06-07T01:46:09.516Z,4.17
2019-06-07T01:48:49.343Z,4.80
2019-06-07T01:51:11.587Z,7.20
2019-06-07T01:53:41.597Z,4.13
2019-06-07T01:56:11.390Z,6.23
2019-06-07T01:58:41.337Z,4.33
2019-06-07T02:01:11.132Z,4.40
2019-06-07T02:03:41.584Z,5.50
2019-06-07T02:06:11.516Z,4.80
2019-06-07T02:08:41.823Z,4.30
2019-06-07T02:11:11.747Z,4.90
2019-06-07T02:13:41.704Z,4.80
2019-06-07T02:16:12.025Z,5.43
2019-06-07T02:19:00.633Z,4.70
2019-06-07T02:21:14.467Z,5.03
2019-06-07T02:23:44.425Z,4.47
2019-06-07T02:26:14.233Z,4.40
2019-06-07T02:28:45.714Z,6.27
2019-06-07T02:31:16.062Z,4.10
2019-06-07T02:33:45.960Z,4.63
2019-06-07T02:36:15.839Z,4.40
2019-06-07T02:38:45.791Z,4.70
2019-06-07T02:41:16.083Z,4.90
2019-06-07T02:43:47.299Z,4.90
2019-06-07T02:46:34.356Z,3.87
2019-06-07T02:48:56.421Z,4.40
2019-06-07T02:51:32.228Z,4.37
2019-06-07T02:53:57.861Z,4.37
2019-06-07T02:56:42.077Z,4.57
2019-06-07T02:58:59.693Z,5.77
2019-06-07T03:01:35.904Z,5.17
2019-06-07T03:04:01.908Z,8.00
2019-06-07T03:06:38.735Z,4.90
2019-06-07T03:09:06.625Z,5.40
2019-06-07T03:11:39.169Z,5.63
2019-06-07T03:14:11.726Z,5.20
2019-06-07T03:16:51.412Z,4.90
2019-06-07T03:19:28.814Z,4.60
2019-06-07T03:21:59.742Z,5.30
2019-06-07T03:24:35.234Z,5.57
2019-06-07T03:29:36.963Z,6.50
2019-06-07T03:32:07.089Z,5.63
2019-06-07T03:34:41.242Z,5.33
2019-06-07T03:37:09.130Z,5.90
2019-06-07T03:39:40.992Z,5.80
2019-06-07T03:42:11.418Z,6.47
2019-06-07T03:44:41.824Z,4.67
2019-06-07T03:47:11.969Z,5.33
2019-06-07T03:49:42.753Z,5.00
2019-06-07T03:52:13.188Z,4.77
2019-06-07T03:54:43.424Z,5.40
2019-06-07T03:57:13.567Z,8.87
2019-06-07T03:59:43.732Z,6.00
2019-06-07T04:02:13.878Z,5.70
2019-06-07T04:04:44.058Z,5.13
2019-06-07T04:07:14.222Z,5.43
2019-06-07T04:09:44.747Z,7.03
2019-06-07T04:12:14.919Z,7.10
2019-06-07T04:14:45.004Z,5.77
2019-06-07T04:17:15.257Z,8.03
2019-06-07T04:19:45.344Z,6.50
2019-06-07T04:22:15.456Z,5.60
2019-06-07T04:24:45.591Z,5.90
2019-06-07T04:27:15.762Z,6.63
2019-06-07T04:30:05.680Z,7.43
2019-06-07T04:32:17.714Z,5.43
2019-06-07T04:34:47.901Z,5.60
2019-06-07T04:37:18.729Z,5.93
2019-06-07T04:39:50.432Z,6.87
2019-06-07T04:42:21.231Z,6.07
2019-06-07T04:44:53.387Z,6.23
2019-06-07T04:47:26.719Z,6.07
2019-06-07T04:49:57.951Z,5.97
2019-06-07T04:52:30.005Z,5.67
2019-06-07T04:55:00.890Z,7.77
2019-06-07T04:57:33.492Z,7.70
2019-06-07T05:00:33.330Z,10.17
2019-06-07T05:02:38.626Z,6.73
2019-06-07T05:05:07.206Z,6.40
2019-06-07T05:07:39.991Z,8.03
2019-06-07T05:10:09.300Z,7.47
2019-06-07T05:12:43.785Z,7.47
2019-06-07T05:15:11.363Z,7.17
2019-06-07T05:17:44.819Z,8.83
2019-06-07T05:20:13.630Z,9.50
2019-06-07T05:22:45.292Z,10.70
2019-06-07T05:25:15.655Z,10.27
2019-06-07T05:27:46.872Z,9.87
2019-06-07T05:31:02.122Z,9.70
2019-06-07T05:33:07.898Z,10.60
2019-06-07T05:35:41.736Z,10.17
2019-06-07T05:38:10.530Z,9.20
2019-06-07T05:40:43.730Z,9.70
2019-06-07T05:43:24.770Z,9.83
2019-06-07T05:45:54.997Z,12.63
2019-06-07T05:48:25.163Z,12.47
2019-06-07T05:50:57.467Z,11.33
2019-06-07T05:53:27.115Z,13.90
2019-06-07T05:55:57.268Z,12.43
2019-06-07T05:58:27.460Z,12.47
2019-06-07T06:01:41.766Z,11.00
2019-06-07T06:03:29.560Z,12.17
2019-06-07T06:05:59.663Z,15.93
2019-06-07T06:08:29.780Z,13.00
2019-06-07T06:11:00.089Z,12.50
2019-06-07T06:13:30.224Z,11.40
2019-06-07T06:16:02.407Z,11.10
2019-06-07T06:18:32.327Z,11.60
2019-06-07T06:21:16.074Z,11.50
2019-06-07T06:23:34.407Z,12.23
2019-06-07T06:26:04.658Z,13.57
2019-06-07T06:28:36.926Z,12.33
2019-06-07T06:31:06.650Z,11.83
2019-06-07T06:33:37.456Z,14.50
2019-06-07T06:36:07.792Z,12.27
2019-06-07T06:38:38.590Z,11.70
2019-06-07T06:41:15.973Z,11.97
2019-06-07T06:43:46.352Z,10.40
2019-06-07T06:46:13.573Z,10.97
2019-06-07T06:48:49.439Z,13.10
2019-06-07T06:51:15.454Z,9.60
2019-06-07T06:53:46.915Z,12.70
2019-06-07T06:56:18.116Z,10.30
2019-06-07T06:59:27.379Z,8.80
2019-06-07T07:01:20.221Z,9.33
2019-06-07T07:04:06.794Z,9.60
2019-06-07T07:06:26.562Z,9.37
2019-06-07T07:08:56.822Z,8.70
2019-06-07T07:11:26.941Z,9.37
2019-06-07T07:13:57.345Z,8.40
2019-06-07T07:16:27.508Z,8.33
2019-06-07T07:18:57.666Z,7.97
2019-06-07T07:21:27.801Z,7.83
2019-06-07T07:24:21.842Z,7.73
2019-06-07T07:26:29.783Z,6.27
2019-06-07T07:28:59.956Z,6.03
2019-06-07T07:31:30.317Z,6.40
2019-06-07T07:34:28.299Z,6.17
2019-06-07T07:36:39.170Z,6.63
2019-06-07T07:39:06.128Z,7.03
2019-06-07T07:41:36.717Z,5.20
2019-06-07T07:44:07.895Z,5.60
2019-06-07T07:46:38.798Z,5.67
2019-06-07T07:49:08.920Z,4.57
2019-06-07T07:51:39.074Z,8.13
2019-06-07T07:54:11.116Z,5.20
2019-06-07T07:56:41.104Z,6.23
2019-06-07T07:59:11.343Z,4.97
2019-06-07T08:01:41.520Z,4.37
2019-06-07T08:04:11.727Z,4.87
2019-06-07T08:06:41.832Z,4.97
2019-06-07T08:09:11.957Z,7.20
2019-06-07T08:11:42.143Z,5.03
2019-06-07T08:14:12.275Z,6.27
2019-06-07T08:16:42.399Z,5.30
2019-06-07T08:19:13.103Z,5.77
2019-06-07T08:21:43.286Z,5.03
2019-06-07T08:24:13.609Z,4.90
2019-06-07T08:26:43.670Z,5.87
2019-06-07T08:29:13.765Z,7.83
2019-06-07T08:31:43.920Z,5.23
2019-06-07T08:34:14.142Z,6.17
2019-06-07T08:36:44.340Z,5.97
2019-06-07T08:39:14.539Z,6.93
2019-06-07T08:41:59.341Z,5.50
2019-06-07T08:44:23.748Z,8.40
2019-06-07T08:46:56.636Z,6.00
2019-06-07T08:49:21.034Z,4.00
2019-06-07T08:51:52.570Z,4.10
2019-06-07T08:54:23.545Z,6.10
2019-06-07T08:57:16.784Z,5.83
2019-06-07T08:59:29.076Z,4.67
2019-06-07T09:02:03.649Z,3.63
2019-06-07T09:04:31.027Z,4.90
2019-06-07T09:07:10.443Z,2.87
2019-06-07T09:09:34.115Z,4.83
2019-06-07T09:12:08.069Z,3.90
2019-06-07T09:14:58.299Z,5.73
2019-06-07T09:17:12.093Z,6.00
2019-06-07T09:19:39.543Z,5.80
2019-06-07T09:22:11.478Z,7.23
2019-06-07T09:24:41.107Z,6.37
2019-06-07T09:27:11.326Z,3.33
2019-06-07T09:29:43.735Z,3.67
2019-06-07T09:32:18.109Z,2.47
2019-06-07T09:34:45.651Z,2.87
2019-06-07T09:38:03.484Z,5.67
2019-06-07T09:39:48.936Z,3.00
2019-06-07T09:42:18.864Z,4.63
2019-06-07T09:44:49.090Z,5.23
2019-06-07T09:47:31.650Z,2.53
2019-06-07T09:49:50.862Z,3.23
2019-06-07T09:52:20.793Z,4.97
2019-06-07T09:55:19.533Z,6.87
2019-06-07T09:57:22.472Z,5.33
2019-06-07T09:59:52.668Z,3.33
2019-06-07T10:02:22.606Z,5.57
2019-06-07T10:04:52.552Z,4.03
2019-06-07T10:07:31.421Z,3.87
2019-06-07T10:10:12.576Z,3.27
2019-06-07T10:12:26.138Z,2.93
2019-06-07T10:14:56.057Z,3.33
2019-06-07T10:17:26.008Z,5.13
2019-06-07T10:19:56.142Z,5.13
2019-06-07T10:22:26.083Z,5.10
2019-06-07T10:24:56.030Z,3.00
2019-06-07T10:27:25.965Z,5.40
2019-06-07T10:29:56.205Z,4.60
2019-06-07T10:32:26.147Z,9.43
2019-06-07T10:34:56.190Z,5.07
2019-06-07T10:37:26.201Z,4.40
2019-06-07T10:39:56.093Z,6.43
2019-06-07T10:42:26.009Z,5.10
2019-06-07T10:44:55.875Z,5.93
2019-06-07T10:47:25.855Z,5.53
2019-06-07T10:49:55.652Z,3.87
2019-06-07T10:52:25.673Z,3.93
2019-06-07T10:54:55.472Z,4.20
2019-06-07T10:57:25.754Z,3.33
2019-06-07T10:59:55.624Z,3.73
2019-06-07T11:02:25.778Z,5.60
2019-06-07T11:04:56.845Z,5.13
2019-06-07T11:07:26.909Z,6.13
2019-06-07T11:10:07.355Z,4.37
2019-06-07T11:12:28.488Z,2.97
2019-06-07T11:14:58.713Z,2.97
2019-06-07T11:17:28.511Z,3.03
2019-06-07T11:19:58.441Z,3.93
2019-06-07T11:22:28.600Z,6.03
2019-06-07T11:24:58.525Z,4.67
2019-06-07T11:27:28.307Z,3.10
2019-06-07T11:29:58.248Z,5.17
2019-06-07T11:32:28.969Z,4.57
2019-06-07T11:34:58.904Z,6.20
2019-06-07T11:37:28.830Z,3.53
2019-06-07T11:39:58.683Z,5.97
2019-06-07T11:42:28.520Z,2.77
2019-06-07T11:44:58.390Z,4.33
2019-06-07T11:47:28.452Z,6.60
2019-06-07T11:49:58.307Z,3.23
2019-06-07T11:52:28.521Z,4.67
2019-06-07T11:54:58.513Z,4.43
2019-06-07T11:57:28.633Z,4.50
2019-06-07T11:59:58.487Z,4.03
2019-06-07T12:02:28.545Z,4.10
2019-06-07T12:04:58.408Z,3.23
2019-06-07T12:07:28.906Z,4.73
2019-06-07T12:09:58.894Z,4.07
2019-06-07T12:12:28.883Z,2.50
2019-06-07T12:14:58.822Z,4.63
2019-06-07T12:17:29.073Z,3.00
2019-06-07T12:19:59.060Z,3.73
2019-06-07T12:22:28.966Z,10.60
2019-06-07T12:24:59.180Z,3.77
2019-06-07T12:27:29.112Z,2.10
2019-06-07T12:29:59.045Z,2.10
2019-06-07T12:32:28.901Z,3.07
2019-06-07T12:34:59.076Z,3.47
2019-06-07T12:37:43.130Z,7.10
2019-06-07T12:40:00.698Z,6.70
2019-06-07T12:42:30.545Z,2.67
2019-06-07T12:45:00.399Z,4.97
2019-06-07T12:47:31.375Z,5.40
2019-06-07T12:50:01.170Z,5.40
2019-06-07T12:52:31.151Z,4.13
2019-06-07T12:55:00.974Z,4.30
2019-06-07T12:57:30.972Z,3.00
2019-06-07T13:00:00.895Z,2.43
2019-06-07T13:02:30.885Z,4.10
2019-06-07T13:05:04.562Z,3.27
2019-06-07T13:07:32.410Z,2.40
2019-06-07T13:10:02.349Z,5.97
2019-06-07T13:12:32.412Z,4.17
2019-06-07T13:17:51.326Z,6.97
2019-06-07T13:20:24.606Z,8.00
2019-06-07T13:22:54.798Z,4.37
2019-06-07T13:25:41.122Z,3.90
2019-06-07T13:27:56.587Z,3.37
2019-06-07T13:30:26.516Z,5.67
2019-06-07T13:32:56.369Z,5.13
2019-06-07T13:35:29.345Z,6.93
2019-06-07T13:37:59.728Z,6.17
2019-06-07T13:40:30.284Z,6.23
2019-06-07T13:43:00.153Z,6.50
2019-06-07T13:45:31.376Z,3.00
2019-06-07T13:48:01.392Z,6.37
2019-06-07T13:50:31.647Z,3.70
2019-06-07T13:53:01.634Z,4.37
2019-06-07T13:55:31.574Z,5.47
2019-06-07T13:58:01.575Z,4.77
2019-06-07T14:00:31.539Z,3.50
2019-06-07T14:03:02.536Z,2.83
2019-06-07T14:05:32.477Z,2.87
2019-06-07T14:08:06.924Z,3.33
2019-06-07T14:10:38.462Z,4.90
2019-06-07T14:16:00.488Z,3.07
2019-06-07T14:18:30.665Z,2.67
2019-06-07T14:21:00.665Z,3.67
2019-06-07T14:23:46.190Z,4.90
2019-06-07T14:26:02.058Z,3.40
2019-06-07T14:28:34.167Z,1.80
2019-06-07T14:31:03.660Z,1.60
2019-06-07T14:33:33.907Z,1.93
2019-06-07T14:36:04.066Z,3.27
2019-06-07T14:38:37.511Z,4.93
2019-06-07T14:41:05.664Z,5.33
2019-06-07T14:43:54.530Z,2.67
2019-06-07T14:46:25.605Z,2.40
2019-06-07T14:49:14.882Z,2.30
2019-06-07T14:51:45.870Z,3.50
2019-06-07T14:54:17.960Z,2.07
2019-06-07T14:56:52.829Z,3.63
2019-06-07T14:59:23.215Z,3.23
2019-06-07T15:01:53.241Z,2.77
2019-06-07T15:04:24.338Z,3.20
2019-06-07T15:06:54.142Z,2.20
2019-06-07T15:09:24.102Z,2.83
2019-06-07T15:11:53.973Z,3.00
2019-06-07T15:14:23.865Z,2.93
2019-06-07T15:16:54.185Z,4.40
2019-06-07T15:19:24.417Z,2.43
2019-06-07T15:21:54.676Z,3.40
2019-06-07T15:24:24.457Z,3.00
2019-06-07T15:26:54.409Z,2.40
2019-06-07T15:29:24.835Z,2.10
2019-06-07T15:31:55.030Z,2.33
2019-06-07T15:34:24.956Z,2.93
2019-06-07T15:36:54.912Z,2.90
2019-06-07T15:39:24.812Z,4.77
2019-06-07T15:41:55.327Z,4.33
2019-06-07T15:44:25.444Z,7.47
2019-06-07T15:46:56.024Z,10.70
2019-06-07T15:49:26.506Z,8.07
2019-06-07T15:51:56.787Z,4.00
2019-06-07T15:54:26.562Z,6.27
2019-06-07T15:56:56.424Z,3.57
2019-06-07T15:59:26.269Z,3.03
2019-06-07T16:01:56.303Z,6.33
2019-06-07T16:04:26.195Z,3.43
2019-06-07T16:06:56.059Z,4.20
2019-06-07T16:09:25.983Z,3.90
2019-06-07T16:11:56.218Z,4.57
2019-06-07T16:14:26.416Z,5.33
2019-06-07T16:16:56.276Z,3.57
2019-06-07T16:19:26.208Z,5.03
2019-06-07T16:21:56.099Z,3.97
2019-06-07T16:24:26.036Z,4.00
2019-06-07T16:26:55.985Z,5.47
2019-06-07T16:29:25.922Z,6.90
2019-06-07T16:31:57.197Z,4.60
2019-06-07T16:34:27.383Z,6.97
2019-06-07T16:36:57.337Z,2.53
2019-06-07T16:39:27.137Z,3.03
2019-06-07T16:41:57.017Z,2.67
2019-06-07T16:44:26.806Z,2.73
2019-06-07T16:46:57.091Z,1.63
2019-06-07T16:49:28.345Z,2.70
2019-06-07T16:51:58.204Z,3.77
2019-06-07T16:54:28.162Z,2.23
2019-06-07T16:56:58.026Z,1.80
2019-06-07T16:59:27.806Z,2.90
2019-06-07T17:01:57.677Z,1.50
2019-06-07T17:04:27.879Z,0.50
2019-06-07T17:06:58.151Z,0.60
2019-06-07T17:09:28.057Z,0.60
2019-06-07T17:11:58.232Z,1.40
2019-06-07T17:14:28.896Z,1.47
2019-06-07T17:16:58.859Z,0.90
2019-06-07T17:19:28.743Z,2.97
2019-06-07T17:21:58.599Z,1.47
2019-06-07T17:24:28.508Z,2.83
2019-06-07T17:26:58.613Z,4.50
2019-06-07T17:29:28.842Z,2.73
2019-06-07T17:31:58.763Z,0.60
2019-06-07T17:34:28.715Z,1.70
2019-06-07T17:36:58.648Z,1.23
2019-06-07T17:39:28.902Z,1.27
2019-06-07T17:42:01.968Z,0.93
2019-06-07T17:44:30.661Z,0.50
2019-06-07T17:47:00.453Z,2.33
2019-06-07T17:49:30.663Z,1.30
2019-06-07T17:52:00.610Z,1.37
2019-06-07T17:54:30.496Z,1.03
2019-06-07T17:57:00.420Z,4.10
2019-06-07T17:59:30.299Z,0.50
2019-06-07T18:02:13.923Z,1.03
2019-06-07T18:04:32.114Z,1.70
2019-06-07T18:07:02.045Z,1.00
2019-06-07T18:09:32.178Z,1.77
2019-06-07T18:12:02.060Z,1.40
2019-06-07T18:14:32.027Z,1.70
2019-06-07T18:17:01.885Z,0.83
2019-06-07T18:19:31.746Z,0.63
2019-06-07T18:22:01.645Z,0.80
2019-06-07T18:24:31.501Z,1.30
2019-06-07T18:27:02.509Z,2.40
2019-06-07T18:29:32.292Z,3.70
2019-06-07T18:32:02.251Z,3.17
2019-06-07T18:34:32.120Z,1.67
2019-06-07T18:37:02.002Z,1.50
2019-06-07T18:39:31.964Z,5.00
2019-06-07T18:42:02.178Z,3.37
2019-06-07T18:44:32.042Z,2.80
2019-06-07T18:47:02.000Z,3.03
2019-06-07T18:49:31.848Z,2.80
2019-06-07T18:52:21.035Z,2.13
2019-06-07T18:54:51.329Z,1.40
2019-06-07T18:57:21.195Z,2.67
2019-06-07T18:59:52.305Z,1.50
2019-06-07T19:02:22.201Z,3.60
2019-06-07T19:04:52.288Z,0.80
2019-06-07T19:07:23.934Z,1.40
2019-06-07T19:09:54.995Z,0.93
2019-06-07T19:12:25.316Z,1.23
2019-06-07T19:14:55.549Z,2.23
2019-06-07T19:17:25.536Z,1.30
2019-06-07T19:19:56.185Z,1.37
2019-06-07T19:22:26.550Z,2.20
2019-06-07T19:24:56.912Z,2.17
2019-06-07T19:27:27.467Z,1.70
2019-06-07T19:29:57.403Z,1.60
2019-06-07T19:32:27.278Z,1.40
2019-06-07T19:34:57.473Z,0.90
2019-06-07T19:37:27.460Z,1.63
2019-06-07T19:39:58.070Z,0.80
2019-06-07T19:42:28.065Z,2.10
2019-06-07T19:45:16.810Z,1.77
2019-06-07T19:47:29.670Z,1.30
2019-06-07T19:50:00.821Z,1.80
2019-06-07T19:52:31.061Z,1.30
2019-06-07T19:55:05.782Z,2.17
2019-06-07T19:57:32.713Z,1.00
2019-06-07T20:00:12.845Z,0.80
2019-06-07T20:02:34.919Z,0.70
2019-06-07T20:05:06.941Z,1.73
2019-06-07T20:07:37.035Z,1.63
2019-06-07T20:10:07.593Z,1.63
2019-06-07T20:12:37.541Z,1.83
2019-06-07T20:15:27.279Z,1.07
2019-06-07T20:17:40.158Z,3.20
2019-06-07T20:20:10.635Z,2.87
2019-06-07T20:22:40.577Z,1.70
2019-06-07T20:25:11.099Z,2.00
2019-06-07T20:27:41.035Z,1.70
2019-06-07T20:30:14.111Z,3.17
2019-06-07T20:32:43.970Z,1.37
2019-06-07T20:35:13.930Z,3.70
2019-06-07T20:37:43.900Z,1.60
2019-06-07T20:40:23.629Z,1.30
2019-06-07T20:42:45.823Z,2.10
2019-06-07T20:45:30.071Z,3.27
2019-06-07T20:47:48.677Z,2.00
2019-06-07T20:50:18.968Z,2.67
2019-06-07T20:52:48.901Z,1.80
2019-06-07T20:55:18.852Z,2.60
2019-06-07T20:57:49.708Z,1.83
2019-06-07T21:00:21.916Z,1.93
2019-06-07T21:02:51.544Z,1.73
2019-06-07T21:05:21.430Z,1.43
2019-06-07T21:07:51.342Z,1.70
2019-06-07T21:10:21.270Z,1.90
2019-06-07T21:12:51.222Z,2.83
2019-06-07T21:15:21.138Z,3.67
2019-06-07T21:17:50.922Z,1.43
2019-06-07T21:20:20.927Z,0.77
2019-06-07T21:22:51.029Z,1.03
2019-06-07T21:25:21.028Z,3.03
2019-06-07T21:27:51.157Z,1.67
2019-06-07T21:30:21.145Z,3.10
2019-06-07T21:32:51.044Z,1.90
2019-06-07T21:35:20.995Z,2.60
2019-06-07T21:37:51.009Z,2.67
2019-06-07T21:40:20.983Z,3.10
2019-06-07T21:42:50.938Z,2.10
2019-06-07T21:45:20.881Z,2.90
2019-06-07T21:47:51.865Z,4.83
2019-06-07T21:50:21.856Z,1.23
2019-06-07T21:52:52.066Z,2.00
2019-06-07T21:55:22.333Z,2.83
2019-06-07T21:57:52.199Z,3.00
2019-06-07T22:00:28.640Z,3.57
2019-06-07T22:03:00.114Z,1.93
2019-06-07T22:05:30.055Z,2.63
2019-06-07T22:08:00.012Z,2.37
2019-06-07T22:10:29.893Z,3.30
2019-06-07T22:12:59.765Z,2.97
2019-06-07T22:15:35.311Z,5.60
2019-06-07T22:18:01.581Z,2.43
2019-06-07T22:20:31.560Z,4.10
2019-06-07T22:23:01.763Z,1.10
2019-06-07T22:25:31.652Z,2.87
2019-06-07T22:28:01.573Z,1.40
2019-06-07T22:30:31.509Z,2.50
2019-06-07T22:33:01.639Z,1.27
2019-06-07T22:35:31.876Z,3.07
2019-06-07T22:38:01.883Z,3.80
2019-06-07T22:40:31.758Z,2.73
2019-06-07T22:43:01.649Z,0.90
2019-06-07T22:45:31.588Z,2.97
2019-06-07T22:48:01.445Z,2.57
2019-06-07T22:50:31.704Z,2.80
2019-06-07T22:53:01.666Z,1.77
2019-06-07T22:55:31.882Z,2.70
2019-06-07T22:58:02.009Z,2.37
2019-06-07T23:00:33.245Z,1.70
2019-06-07T23:03:03.201Z,1.53
2019-06-07T23:05:33.205Z,3.43
2019-06-07T23:08:03.239Z,1.50
2019-06-07T23:10:33.226Z,1.27
2019-06-07T23:13:03.473Z,1.57
2019-06-07T23:15:33.550Z,1.43
2019-06-07T23:18:03.498Z,1.53
2019-06-07T23:20:33.442Z,2.10
2019-06-07T23:23:03.306Z,1.23
2019-06-07T23:25:33.182Z,2.10
2019-06-07T23:28:03.074Z,3.77
2019-06-07T23:30:32.993Z,1.77
2019-06-07T23:33:03.166Z,1.70
2019-06-07T23:35:33.466Z,2.00
2019-06-07T23:38:03.380Z,2.50
2019-06-07T23:40:33.346Z,2.83
2019-06-07T23:43:03.358Z,1.77
2019-06-07T23:45:33.320Z,1.93
2019-06-07T23:48:03.176Z,2.70
2019-06-07T23:50:32.969Z,1.10
2019-06-07T23:53:02.816Z,3.43
2019-06-07T23:55:32.700Z,2.50
2019-06-07T23:58:02.928Z,2.73
